createdAt,value
2022-11-30T00:01:14.217Z,99051.44
2022-11-30T00:03:41.333Z,99056.00
2022-11-30T00:06:10.728Z,99055.75
2022-11-30T00:08:38.324Z,99059.25
2022-11-30T00:11:10.133Z,99047.66
2022-11-30T00:13:36.860Z,99048.19
2022-11-30T00:16:04.278Z,99050.59
2022-11-30T00:18:31.241Z,99047.13
2022-11-30T00:21:02.306Z,99044.97
2022-11-30T00:23:33.814Z,99044.69
2022-11-30T00:26:05.279Z,99041.19
2022-11-30T00:28:33.786Z,99047.91
2022-11-30T00:31:03.623Z,99041.44
2022-11-30T00:33:33.044Z,99041.72
2022-11-30T00:36:01.737Z,99039.03
2022-11-30T00:38:28.977Z,99047.91
2022-11-30T00:40:56.664Z,99043.88
2022-11-30T00:43:23.786Z,99043.06
2022-11-30T00:45:50.537Z,99044.97
2022-11-30T00:48:17.387Z,99049.81
2022-11-30T00:50:44.091Z,99050.06
2022-11-30T00:53:10.914Z,99046.84
2022-11-30T00:55:37.660Z,99051.44
2022-11-30T00:58:06.866Z,99049.28
2022-11-30T01:00:33.823Z,99052.53
2022-11-30T01:03:00.592Z,99051.69
2022-11-30T01:05:27.351Z,99051.16
2022-11-30T01:07:54.409Z,99052.50
2022-11-30T01:10:23.029Z,99054.13
2022-11-30T01:12:49.752Z,99049.53
2022-11-30T01:15:16.881Z,99044.97
2022-11-30T01:17:43.610Z,99051.44
2022-11-30T01:20:10.927Z,99057.91
2022-11-30T01:22:37.852Z,99060.06
2022-11-30T01:25:05.161Z,99060.59
2022-11-30T01:27:32.107Z,99061.94
2022-11-30T01:29:58.921Z,99055.22
2022-11-30T01:32:25.699Z,99058.72
2022-11-30T01:34:52.488Z,99055.22
2022-11-30T01:37:19.347Z,99059.25
2022-11-30T01:39:46.105Z,99060.63
2022-11-30T01:42:15.552Z,99059.00
2022-11-30T01:44:48.682Z,99059.53
2022-11-30T01:47:16.100Z,99062.47
2022-11-30T01:49:48.465Z,99063.84
2022-11-30T01:52:20.578Z,99060.06
2022-11-30T01:54:57.544Z,99064.63
2022-11-30T01:57:26.362Z,99062.22
2022-11-30T01:59:57.089Z,99073.03
2022-11-30T02:02:34.177Z,99069.25
2022-11-30T02:05:02.300Z,99063.84
2022-11-30T02:07:29.096Z,99068.97
2022-11-30T02:09:55.892Z,99079.50
2022-11-30T02:12:51.887Z,99073.03
2022-11-30T02:15:23.705Z,99070.31
2022-11-30T02:18:01.842Z,99074.88
2022-11-30T02:20:54.053Z,99076.81
2022-11-30T02:23:29.915Z,99075.97
2022-11-30T02:26:11.673Z,99075.44
2022-11-30T02:28:57.247Z,99078.66
2022-11-30T02:31:30.028Z,99076.25
2022-11-30T02:33:59.438Z,99081.66
2022-11-30T02:36:28.211Z,99072.47
2022-11-30T02:38:56.135Z,99067.88
2022-11-30T02:41:22.900Z,99078.41
2022-11-30T02:43:50.900Z,99076.81
2022-11-30T02:46:35.294Z,99075.19
2022-11-30T02:49:11.628Z,99073.56
2022-11-30T02:51:40.026Z,99070.31
2022-11-30T02:54:07.181Z,99079.50
2022-11-30T02:56:34.391Z,99072.72
2022-11-30T02:59:01.114Z,99068.97
2022-11-30T03:01:27.942Z,99077.88
2022-11-30T03:03:54.666Z,99076.78
2022-11-30T03:06:21.469Z,99072.72
2022-11-30T03:08:48.142Z,99080.56
2022-11-30T03:11:15.016Z,99078.66
2022-11-30T03:13:41.817Z,99072.47
2022-11-30T03:16:09.709Z,99078.66
2022-11-30T03:18:37.457Z,99076.78
2022-11-30T03:21:11.508Z,99072.19
2022-11-30T03:23:39.538Z,99072.72
2022-11-30T03:26:08.254Z,99076.50
2022-11-30T03:28:36.421Z,99074.63
2022-11-30T03:31:03.672Z,99082.44
2022-11-30T03:33:30.568Z,99077.34
2022-11-30T03:36:06.061Z,99076.50
2022-11-30T03:38:33.458Z,99076.50
2022-11-30T03:41:09.648Z,99086.50
2022-11-30T03:43:36.484Z,99078.94
2022-11-30T03:46:04.039Z,99086.50
2022-11-30T03:48:31.549Z,99078.41
2022-11-30T03:50:58.730Z,99077.59
2022-11-30T03:53:25.644Z,99076.50
2022-11-30T03:55:54.115Z,99080.03
2022-11-30T03:58:21.966Z,99079.47
2022-11-30T04:00:48.772Z,99085.13
2022-11-30T04:03:16.233Z,99078.13
2022-11-30T04:05:43.412Z,99085.41
2022-11-30T04:08:10.139Z,99084.88
2022-11-30T04:10:36.864Z,99086.75
2022-11-30T04:13:03.594Z,99087.03
2022-11-30T04:15:30.335Z,99088.91
2022-11-30T04:17:57.093Z,99089.72
2022-11-30T04:20:23.814Z,99088.66
2022-11-30T04:22:50.589Z,99092.16
2022-11-30T04:25:17.492Z,99085.69
2022-11-30T04:27:46.662Z,99082.97
2022-11-30T04:30:13.984Z,99090.00
2022-11-30T04:32:40.735Z,99081.09
2022-11-30T04:35:08.543Z,99090.81
2022-11-30T04:37:35.223Z,99087.84
2022-11-30T04:40:02.001Z,99087.84
2022-11-30T04:42:28.956Z,99086.75
2022-11-30T04:44:55.697Z,99089.75
2022-11-30T04:47:22.417Z,99089.19
2022-11-30T04:49:49.146Z,99087.56
2022-11-30T04:52:16.106Z,99087.03
2022-11-30T04:54:42.842Z,99085.94
2022-11-30T04:57:09.549Z,99082.97
2022-11-30T04:59:36.249Z,99088.66
2022-11-30T05:02:03.059Z,99085.13
2022-11-30T05:04:29.927Z,99083.78
2022-11-30T05:06:56.880Z,99089.72
2022-11-30T05:09:23.681Z,99084.06
2022-11-30T05:11:50.460Z,99091.06
2022-11-30T05:14:17.266Z,99092.41
2022-11-30T05:16:47.495Z,99097.53
2022-11-30T05:19:14.745Z,99095.13
2022-11-30T05:21:45.592Z,99102.66
2022-11-30T05:24:13.340Z,99104.00
2022-11-30T05:26:40.171Z,99095.34
2022-11-30T05:29:07.077Z,99103.44
2022-11-30T05:31:34.069Z,99103.72
2022-11-30T05:34:00.882Z,99109.13
2022-11-30T05:36:27.595Z,99108.03
2022-11-30T05:38:54.362Z,99108.28
2022-11-30T05:41:21.118Z,99114.50
2022-11-30T05:43:47.817Z,99119.06
2022-11-30T05:46:14.621Z,99121.53
2022-11-30T05:48:41.383Z,99122.06
2022-11-30T05:51:11.787Z,99116.66
2022-11-30T05:53:38.948Z,99116.13
2022-11-30T05:56:08.207Z,99125.53
2022-11-30T05:58:35.370Z,99120.69
2022-11-30T06:01:02.330Z,99119.34
2022-11-30T06:03:30.709Z,99113.41
2022-11-30T06:05:57.534Z,99119.34
2022-11-30T06:08:27.063Z,99118.00
2022-11-30T06:10:54.448Z,99118.53
2022-11-30T06:13:24.736Z,99110.97
2022-11-30T06:15:59.630Z,99119.59
2022-11-30T06:18:26.746Z,99116.94
2022-11-30T06:20:53.514Z,99107.50
2022-11-30T06:23:20.435Z,99098.88
2022-11-30T06:25:47.211Z,99100.47
2022-11-30T06:28:14.110Z,99107.75
2022-11-30T06:30:40.946Z,99108.03
2022-11-30T06:33:07.830Z,99108.03
2022-11-30T06:35:34.677Z,99105.31
2022-11-30T06:38:01.693Z,99106.91
2022-11-30T06:40:28.547Z,99108.56
2022-11-30T06:42:55.346Z,99110.72
2022-11-30T06:45:22.165Z,99114.22
2022-11-30T06:47:49.204Z,99113.13
2022-11-30T06:50:16.091Z,99107.19
2022-11-30T06:52:43.237Z,99114.47
2022-11-30T06:55:11.020Z,99116.09
2022-11-30T06:57:37.903Z,99116.09
2022-11-30T07:00:09.450Z,99120.13
2022-11-30T07:02:36.684Z,99117.44
2022-11-30T07:05:04.110Z,99122.03
2022-11-30T07:07:31.021Z,99124.16
2022-11-30T07:09:58.394Z,99121.72
2022-11-30T07:12:25.782Z,99119.59
2022-11-30T07:14:55.479Z,99113.13
2022-11-30T07:17:22.752Z,99116.63
2022-11-30T07:19:49.552Z,99117.19
2022-11-30T07:22:16.558Z,99117.44
2022-11-30T07:25:02.327Z,99119.88
2022-11-30T07:27:29.235Z,99123.38
2022-11-30T07:29:56.246Z,99127.69
2022-11-30T07:32:23.085Z,99129.59
2022-11-30T07:34:50.132Z,99132.28
2022-11-30T07:37:17.060Z,99128.53
2022-11-30T07:39:43.770Z,99134.19
2022-11-30T07:42:10.922Z,99125.84
2022-11-30T07:44:37.699Z,99133.66
2022-11-30T07:47:04.433Z,99131.25
2022-11-30T07:49:31.180Z,99132.88
2022-11-30T07:51:57.827Z,99134.19
2022-11-30T07:54:24.786Z,99135.53
2022-11-30T07:56:51.544Z,99140.94
2022-11-30T07:59:18.247Z,99145.78
2022-11-30T08:01:45.041Z,99143.09
2022-11-30T08:04:13.981Z,99150.88
2022-11-30T08:06:41.093Z,99151.16
2022-11-30T08:09:07.914Z,99162.50
2022-11-30T08:11:35.615Z,99155.47
2022-11-30T08:14:03.477Z,99149.25
2022-11-30T08:16:34.496Z,99149.25
2022-11-30T08:19:01.435Z,99151.16
2022-11-30T08:21:28.266Z,99157.91
2022-11-30T08:23:56.721Z,99153.06
2022-11-30T08:26:26.139Z,99152.53
2022-11-30T08:28:53.818Z,99156.03
2022-11-30T08:31:22.037Z,99158.22
2022-11-30T08:33:49.876Z,99152.81
2022-11-30T08:36:18.078Z,99163.63
2022-11-30T08:38:45.961Z,99166.34
2022-11-30T08:41:15.218Z,99162.03
2022-11-30T08:43:42.772Z,99164.72
2022-11-30T08:49:19.866Z,99170.09
2022-11-30T08:52:16.069Z,99174.41
2022-11-30T08:54:34.560Z,99180.06
2022-11-30T08:57:01.971Z,99181.13
2022-11-30T08:59:31.325Z,99174.66
2022-11-30T09:01:58.143Z,99182.22
2022-11-30T09:04:25.074Z,99173.06
2022-11-30T09:06:51.763Z,99176.06
2022-11-30T09:09:18.623Z,99179.31
2022-11-30T09:11:45.353Z,99183.88
2022-11-30T09:14:12.060Z,99181.44
2022-11-30T09:16:38.904Z,99191.72
2022-11-30T09:19:05.662Z,99184.69
2022-11-30T09:21:32.737Z,99194.13
2022-11-30T09:23:59.595Z,99191.72
2022-11-30T09:26:26.559Z,99197.09
2022-11-30T09:28:54.165Z,99199.28
2022-11-30T09:31:25.489Z,99193.34
2022-11-30T09:33:53.134Z,99198.19
2022-11-30T09:36:22.441Z,99193.03
2022-11-30T09:38:49.725Z,99203.59
2022-11-30T09:41:28.672Z,99200.91
2022-11-30T09:44:17.210Z,99203.31
2022-11-30T09:47:07.284Z,99205.47
2022-11-30T09:49:37.747Z,99203.06
2022-11-30T09:52:09.792Z,99197.69
2022-11-30T09:54:45.751Z,99199.81
2022-11-30T09:57:25.747Z,99200.91
2022-11-30T10:00:01.301Z,99190.66
2022-11-30T10:02:33.622Z,99194.16
2022-11-30T10:05:01.018Z,99193.88
2022-11-30T10:08:06.341Z,99197.66
2022-11-30T10:10:56.163Z,99197.09
2022-11-30T10:13:55.771Z,99192.25
2022-11-30T10:16:38.934Z,99198.75
2022-11-30T10:19:14.683Z,99197.69
2022-11-30T10:22:04.310Z,99194.75
2022-11-30T10:24:47.178Z,99194.22
2022-11-30T10:27:22.751Z,99195.53
2022-11-30T10:29:50.027Z,99190.69
2022-11-30T10:32:22.478Z,99186.91
2022-11-30T10:34:56.182Z,99184.19
2022-11-30T10:37:34.101Z,99179.63
2022-11-30T10:40:02.713Z,99184.19
2022-11-30T10:42:40.949Z,99180.97
2022-11-30T10:45:21.390Z,99178.25
2022-11-30T10:48:14.309Z,99177.72
2022-11-30T10:50:41.519Z,99172.63
2022-11-30T10:53:12.341Z,99170.44
2022-11-30T10:55:44.131Z,99168.53
2022-11-30T10:58:33.014Z,99159.91
2022-11-30T11:01:05.968Z,99156.66
2022-11-30T11:03:33.962Z,99163.16
2022-11-30T11:06:21.810Z,99149.66
2022-11-30T11:08:48.511Z,99157.47
2022-11-30T11:11:35.257Z,99161.50
2022-11-30T11:14:30.464Z,99159.91
2022-11-30T11:17:06.710Z,99168.53
2022-11-30T11:19:38.716Z,99169.09
2022-11-30T11:22:15.078Z,99164.75
2022-11-30T11:24:42.453Z,99160.19
2022-11-30T11:27:25.851Z,99157.47
2022-11-30T11:30:16.546Z,99158.81
2022-11-30T11:32:58.804Z,99165.81
2022-11-30T11:35:37.785Z,99164.75
2022-11-30T11:38:23.687Z,99168.00
2022-11-30T11:41:06.565Z,99163.13
2022-11-30T11:43:54.449Z,99167.75
2022-11-30T11:46:21.849Z,99171.78
2022-11-30T11:49:02.348Z,99162.88
2022-11-30T11:51:38.341Z,99166.13
2022-11-30T11:54:19.524Z,99168.53
2022-11-30T11:56:46.910Z,99168.00
2022-11-30T11:59:22.327Z,99164.50
2022-11-30T12:02:01.236Z,99170.16
2022-11-30T12:04:50.380Z,99169.06
2022-11-30T12:07:32.895Z,99163.09
2022-11-30T12:09:59.616Z,99163.38
2022-11-30T12:12:27.511Z,99157.72
2022-11-30T12:14:55.621Z,99153.38
2022-11-30T12:17:25.543Z,99158.81
2022-11-30T12:20:16.033Z,99155.81
2022-11-30T12:23:01.036Z,99162.84
2022-11-30T12:25:33.456Z,99154.19
2022-11-30T12:28:30.273Z,99160.13
2022-11-30T12:31:17.717Z,99157.72
2022-11-30T12:34:13.141Z,99153.94
2022-11-30T12:37:12.138Z,99160.97
2022-11-30T12:40:13.019Z,99159.34
2022-11-30T12:43:15.177Z,99157.16
2022-11-30T12:45:46.131Z,99153.06
2022-11-30T12:48:40.601Z,99148.75
2022-11-30T12:51:30.205Z,99146.34
2022-11-30T12:54:32.545Z,99155.22
2022-11-30T12:57:18.854Z,99153.63
2022-11-30T12:59:55.530Z,99151.75
2022-11-30T13:03:00.571Z,99156.63
2022-11-30T13:05:52.297Z,99157.69
2022-11-30T13:08:25.967Z,99159.31
2022-11-30T13:11:00.144Z,99149.06
2022-11-30T13:13:31.646Z,99154.19
2022-11-30T13:16:00.720Z,99155.56
2022-11-30T13:18:28.357Z,99159.63
2022-11-30T13:21:16.106Z,99153.41
2022-11-30T13:23:59.330Z,99150.44
2022-11-30T13:26:28.789Z,99160.19
2022-11-30T13:29:20.063Z,99155.56
2022-11-30T13:32:56.252Z,99156.41
2022-11-30T13:35:27.685Z,99162.03
2022-11-30T13:41:05.662Z,99157.72
2022-11-30T13:43:50.650Z,99156.66
2022-11-30T13:46:23.569Z,99159.09
2022-11-30T13:49:16.266Z,99160.72
2022-11-30T13:51:43.022Z,99162.59
2022-11-30T13:54:39.178Z,99166.38
2022-11-30T13:57:35.293Z,99162.06
2022-11-30T14:00:25.080Z,99165.59
2022-11-30T14:02:57.964Z,99165.28
2022-11-30T14:05:35.265Z,99170.16
2022-11-30T14:08:02.048Z,99160.19
2022-11-30T14:10:35.667Z,99167.47
2022-11-30T14:13:29.339Z,99165.31
2022-11-30T14:16:00.358Z,99169.09
2022-11-30T14:18:30.175Z,99169.38
2022-11-30T14:21:13.402Z,99169.91
2022-11-30T14:23:40.196Z,99164.75
2022-11-30T14:26:14.028Z,99175.03
2022-11-30T14:28:51.726Z,99171.53
2022-11-30T14:31:24.097Z,99176.38
2022-11-30T14:34:08.678Z,99180.16
2022-11-30T14:36:40.330Z,99171.53
2022-11-30T14:39:27.684Z,99177.47
2022-11-30T14:41:54.923Z,99178.25
2022-11-30T14:44:21.711Z,99178.25
2022-11-30T14:46:51.864Z,99179.34
2022-11-30T14:49:18.547Z,99186.66
2022-11-30T14:51:49.214Z,99182.03
2022-11-30T14:54:44.278Z,99187.19
2022-11-30T14:57:32.456Z,99182.31
2022-11-30T14:59:59.568Z,99190.69
2022-11-30T15:02:34.097Z,99179.88
2022-11-30T15:05:02.033Z,99172.06
2022-11-30T15:07:29.794Z,99174.22
2022-11-30T15:10:15.356Z,99176.38
2022-11-30T15:12:44.765Z,99172.88
2022-11-30T15:15:27.722Z,99166.38
2022-11-30T15:17:58.823Z,99173.16
2022-11-30T15:20:25.919Z,99164.75
2022-11-30T15:22:54.704Z,99175.00
2022-11-30T15:25:24.918Z,99176.09
2022-11-30T15:27:52.325Z,99180.69
2022-11-30T15:30:19.609Z,99180.41
2022-11-30T15:32:49.186Z,99169.91
2022-11-30T15:35:21.736Z,99178.00
2022-11-30T15:37:49.581Z,99175.31
2022-11-30T15:40:25.592Z,99176.63
2022-11-30T15:42:52.513Z,99189.59
2022-11-30T15:45:25.828Z,99186.88
2022-11-30T15:47:54.064Z,99186.88
2022-11-30T15:50:28.287Z,99194.44
2022-11-30T15:53:03.526Z,99187.13
2022-11-30T15:55:45.649Z,99185.25
2022-11-30T15:58:33.680Z,99190.66
2022-11-30T16:01:09.867Z,99192.03
2022-11-30T16:03:58.903Z,99196.91
2022-11-30T16:06:30.986Z,99202.00
2022-11-30T16:09:03.291Z,99203.63
2022-11-30T16:11:30.095Z,99203.34
2022-11-30T16:13:56.865Z,99203.88
2022-11-30T16:16:30.854Z,99198.47
2022-11-30T16:18:57.659Z,99204.94
2022-11-30T16:21:24.355Z,99206.28
2022-11-30T16:23:51.165Z,99206.28
2022-11-30T16:29:05.680Z,99202.50
2022-11-30T16:31:32.509Z,99206.28
2022-11-30T16:33:59.336Z,99199.28
2022-11-30T16:36:26.728Z,99210.84
2022-11-30T16:38:53.745Z,99214.91
2022-11-30T16:41:21.399Z,99214.91
2022-11-30T16:43:50.220Z,99212.22
2022-11-30T16:46:25.536Z,99215.16
2022-11-30T16:48:53.139Z,99218.38
2022-11-30T16:51:27.074Z,99224.88
2022-11-30T16:53:55.144Z,99221.38
2022-11-30T16:56:22.561Z,99221.38
2022-11-30T16:58:49.620Z,99227.31
2022-11-30T17:01:34.782Z,99226.78
2022-11-30T17:04:11.211Z,99225.41
2022-11-30T17:06:38.481Z,99235.41
2022-11-30T17:09:05.219Z,99233.50
2022-11-30T17:11:34.891Z,99233.78
2022-11-30T17:14:01.747Z,99228.91
2022-11-30T17:16:28.574Z,99230.53
2022-11-30T17:18:55.381Z,99226.47
2022-11-30T17:21:28.940Z,99238.88
2022-11-30T17:23:56.124Z,99236.47
2022-11-30T17:26:23.255Z,99236.47
2022-11-30T17:28:49.974Z,99237.78
2022-11-30T17:31:17.245Z,99237.50
2022-11-30T17:33:48.184Z,99236.97
2022-11-30T17:36:16.903Z,99242.66
2022-11-30T17:38:44.159Z,99239.41
2022-11-30T17:41:19.296Z,99239.16
2022-11-30T17:43:47.700Z,99224.28
2022-11-30T17:46:17.709Z,99238.59
2022-11-30T17:48:44.924Z,99238.59
2022-11-30T17:51:12.317Z,99237.50
2022-11-30T17:53:40.521Z,99238.28
2022-11-30T17:56:13.848Z,99241.28
2022-11-30T17:58:44.128Z,99246.94
2022-11-30T18:01:25.851Z,99245.59
2022-11-30T18:03:54.146Z,99248.84
2022-11-30T18:06:21.221Z,99246.94
2022-11-30T18:08:48.011Z,99249.94
2022-11-30T18:11:17.503Z,99254.78
2022-11-30T18:13:44.452Z,99246.16
2022-11-30T18:16:14.425Z,99255.88
2022-11-30T18:18:45.929Z,99258.81
2022-11-30T18:21:16.705Z,99255.59
2022-11-30T18:23:43.517Z,99255.59
2022-11-30T18:26:15.956Z,99261.81
2022-11-30T18:28:42.855Z,99266.34
2022-11-30T18:31:09.908Z,99259.06
2022-11-30T18:33:37.438Z,99268.47
2022-11-30T18:36:08.761Z,99266.06
2022-11-30T18:38:38.526Z,99273.84
2022-11-30T18:41:06.547Z,99279.00
2022-11-30T18:43:34.666Z,99276.28
2022-11-30T18:46:12.243Z,99277.06
2022-11-30T18:48:40.910Z,99277.09
2022-11-30T18:51:15.606Z,99287.34
2022-11-30T18:53:42.575Z,99276.28
2022-11-30T18:56:10.169Z,99285.69
2022-11-30T18:58:36.946Z,99279.75
2022-11-30T19:01:13.680Z,99284.59
2022-11-30T19:03:41.070Z,99284.84
2022-11-30T19:06:08.998Z,99286.72
2022-11-30T19:08:36.798Z,99280.00
2022-11-30T19:11:05.798Z,99279.94
2022-11-30T19:13:33.466Z,99289.66
2022-11-30T19:16:05.054Z,99285.59
2022-11-30T19:18:32.981Z,99282.91
2022-11-30T19:21:00.089Z,99285.59
2022-11-30T19:23:26.947Z,99289.91
2022-11-30T19:26:00.532Z,99290.44
2022-11-30T19:28:30.315Z,99295.81
2022-11-30T19:30:58.374Z,99298.19
2022-11-30T19:33:26.399Z,99306.03
2022-11-30T19:35:53.223Z,99302.00
2022-11-30T19:38:19.947Z,99300.66
2022-11-30T19:40:46.636Z,99299.84
2022-11-30T19:43:13.357Z,99304.69
2022-11-30T19:45:40.116Z,99295.22
2022-11-30T19:48:06.947Z,99300.06
2022-11-30T19:50:33.637Z,99308.38
2022-11-30T19:53:00.454Z,99308.94
2022-11-30T19:55:27.276Z,99314.31
2022-11-30T19:57:54.055Z,99304.06
2022-11-30T20:00:20.907Z,99310.84
2022-11-30T20:02:49.526Z,99316.44
2022-11-30T20:05:17.492Z,99319.63
2022-11-30T20:07:44.407Z,99315.31
2022-11-30T20:10:13.431Z,99317.44
2022-11-30T20:12:40.944Z,99315.00
2022-11-30T20:15:08.426Z,99311.75
2022-11-30T20:17:35.290Z,99325.50
2022-11-30T20:20:02.259Z,99321.75
2022-11-30T20:22:29.243Z,99322.00
2022-11-30T20:24:56.223Z,99322.25
2022-11-30T20:27:24.694Z,99319.56
2022-11-30T20:29:52.068Z,99325.22
2022-11-30T20:32:19.468Z,99325.44
2022-11-30T20:34:46.874Z,99331.38
2022-11-30T20:37:15.604Z,99331.59
2022-11-30T20:39:45.789Z,99335.31
2022-11-30T20:42:13.231Z,99332.78
2022-11-30T20:44:40.162Z,99331.97
2022-11-30T20:47:06.986Z,99336.03
2022-11-30T20:49:33.776Z,99334.41
2022-11-30T20:52:00.553Z,99334.41
2022-11-30T20:54:29.843Z,99332.47
2022-11-30T20:56:58.653Z,99339.47
2022-11-30T20:59:26.717Z,99338.06
2022-11-30T21:01:55.395Z,99335.34
2022-11-30T21:04:24.634Z,99336.34
2022-11-30T21:06:52.186Z,99337.47
2022-11-30T21:09:19.773Z,99345.09
2022-11-30T21:11:47.983Z,99345.09
2022-11-30T21:14:15.558Z,99344.56
2022-11-30T21:16:42.362Z,99342.69
2022-11-30T21:19:15.116Z,99344.06
2022-11-30T21:21:41.977Z,99345.13
2022-11-30T21:24:10.778Z,99342.69
2022-11-30T21:26:40.244Z,99341.31
2022-11-30T21:29:14.448Z,99335.06
2022-11-30T21:31:42.160Z,99336.63
2022-11-30T21:34:09.053Z,99332.03
2022-11-30T21:36:35.834Z,99334.97
2022-11-30T21:39:06.442Z,99337.38
2022-11-30T21:41:38.989Z,99326.28
2022-11-30T21:44:07.971Z,99330.31
2022-11-30T21:46:34.773Z,99334.06
2022-11-30T21:49:02.155Z,99338.38
2022-11-30T21:51:30.315Z,99341.03
2022-11-30T21:53:59.350Z,99339.63
2022-11-30T21:56:31.551Z,99343.94
2022-11-30T21:58:58.839Z,99336.94
2022-11-30T22:01:28.774Z,99339.34
2022-11-30T22:03:57.467Z,99346.28
2022-11-30T22:06:26.090Z,99346.28
2022-11-30T22:08:53.134Z,99348.53
2022-11-30T22:11:21.878Z,99349.03
2022-11-30T22:13:53.163Z,99351.72
2022-11-30T22:16:21.700Z,99350.59
2022-11-30T22:18:51.292Z,99350.59
2022-11-30T22:21:20.260Z,99352.97
2022-11-30T22:23:52.202Z,99346.97
2022-11-30T22:26:21.261Z,99346.09
2022-11-30T22:29:11.377Z,99344.22
2022-11-30T22:31:40.746Z,99343.41
2022-11-30T22:34:08.652Z,99346.91
2022-11-30T22:36:37.535Z,99336.72
2022-11-30T22:39:09.720Z,99343.41
2022-11-30T22:41:37.213Z,99349.84
2022-11-30T22:44:04.129Z,99350.22
2022-11-30T22:46:33.825Z,99344.59
2022-11-30T22:49:02.993Z,99341.66
2022-11-30T22:51:31.539Z,99340.34
2022-11-30T22:53:59.578Z,99339.72
2022-11-30T22:56:32.234Z,99346.91
2022-11-30T22:59:00.868Z,99344.41
2022-11-30T23:01:33.488Z,99349.47
2022-11-30T23:04:04.134Z,99344.34
2022-11-30T23:06:31.493Z,99346.22
2022-11-30T23:08:59.143Z,99342.78
2022-11-30T23:11:26.701Z,99350.66
2022-11-30T23:13:53.708Z,99348.78
2022-11-30T23:16:21.200Z,99348.41
2022-11-30T23:18:54.568Z,99350.22
2022-11-30T23:21:30.245Z,99350.78
2022-11-30T23:24:01.401Z,99349.47
2022-11-30T23:26:31.159Z,99349.78
2022-11-30T23:29:00.152Z,99345.41
2022-11-30T23:31:34.098Z,99351.84
2022-11-30T23:34:06.051Z,99339.72
2022-11-30T23:36:34.235Z,99344.28
2022-11-30T23:39:07.039Z,99339.88
2022-11-30T23:41:34.263Z,99342.34
2022-11-30T23:44:01.464Z,99343.41
2022-11-30T23:46:28.675Z,99349.59
2022-11-30T23:48:55.778Z,99348.53
2022-11-30T23:51:23.795Z,99340.72
2022-11-30T23:53:50.904Z,99342.56
2022-11-30T23:56:19.996Z,99334.00
2022-11-30T23:58:47.159Z,99333.50
